Time;durP1;ratioP1;P1;durP2;ratioP2;P2;SDS_P1;SDS_P2;PMS_P1;PMS_P2;Temp;Humidity;BMP_temperature;BMP_pressure;BME280_temperature;BME280_humidity;BME280_pressure;Samples;Min_cycle;Max_cycle;Signal;HPM_P1;HPM_P2
2020/12/16 00:01:26;;;;;;;24.42;17.50;;;2.70;94.70;;;;;;5067314;28;20742;-71
2020/12/16 00:03:53;;;;;;;23.00;17.27;;;2.60;95.00;;;;;;5090581;28;20457;-72
2020/12/16 00:06:19;;;;;;;23.60;16.73;;;2.60;95.20;;;;;;5069208;28;20422;-71
2020/12/16 00:08:46;;;;;;;23.77;17.80;;;2.60;94.90;;;;;;5090746;28;20471;-71
2020/12/16 00:11:13;;;;;;;24.17;17.13;;;2.60;95.00;;;;;;5069845;28;20471;-71
2020/12/16 00:13:39;;;;;;;23.00;17.02;;;2.50;95.00;;;;;;5073004;28;20394;-72
2020/12/16 00:16:08;;;;;;;25.50;18.37;;;2.50;95.20;;;;;;5069726;28;20437;-71
2020/12/16 00:18:35;;;;;;;25.27;18.30;;;2.60;95.20;;;;;;5090569;28;20846;-71
2020/12/16 00:21:01;;;;;;;26.42;18.40;;;2.60;95.00;;;;;;5069564;28;20473;-72
2020/12/16 00:23:27;;;;;;;27.20;18.40;;;2.60;95.10;;;;;;5074498;28;20406;-72
2020/12/16 00:25:54;;;;;;;25.45;18.58;;;2.60;95.20;;;;;;5091425;28;20533;-72
2020/12/16 00:28:25;;;;;;;25.23;18.30;;;2.70;94.90;;;;;;5076413;28;20847;-71
2020/12/16 00:30:52;;;;;;;25.48;17.58;;;2.60;94.90;;;;;;5077018;28;20441;-72
2020/12/16 00:33:20;;;;;;;25.47;17.50;;;2.60;95.10;;;;;;5109235;28;20429;-72
2020/12/16 00:35:49;;;;;;;25.45;18.30;;;2.60;95.10;;;;;;5114824;28;20516;-72
2020/12/16 00:38:16;;;;;;;24.77;17.90;;;2.60;95.20;;;;;;5095763;28;20413;-71
2020/12/16 00:40:44;;;;;;;26.02;18.98;;;2.50;95.30;;;;;;5094530;28;20406;-71
2020/12/16 00:43:13;;;;;;;27.37;18.90;;;2.50;95.50;;;;;;5073551;28;20467;-72
2020/12/16 00:45:40;;;;;;;26.65;19.25;;;2.50;95.40;;;;;;5094148;28;20464;-72
2020/12/16 00:48:08;;;;;;;24.63;17.55;;;2.50;95.50;;;;;;5073261;28;20449;-72
2020/12/16 00:50:35;;;;;;;25.50;18.67;;;2.60;94.90;;;;;;5076712;28;20398;-72
2020/12/16 00:53:01;;;;;;;25.52;18.50;;;2.50;95.00;;;;;;5091326;28;20455;-72
2020/12/16 00:55:30;;;;;;;25.35;18.08;;;2.50;95.30;;;;;;5076578;28;20494;-71
2020/12/16 00:57:56;;;;;;;21.05;15.98;;;2.40;95.20;;;;;;5090966;28;20413;-72
2020/12/16 01:00:31;;;;;;;19.73;15.50;;;2.50;95.30;;;;;;5076536;28;20402;-72
2020/12/16 01:03:00;;;;;;;21.75;16.42;;;2.40;95.00;;;;;;5091468;28;20405;-72
2020/12/16 01:05:30;;;;;;;22.77;16.40;;;2.40;95.00;;;;;;5057127;28;20453;-72
2020/12/16 01:07:58;;;;;;;22.05;16.40;;;2.30;95.10;;;;;;5073765;28;20822;-71
2020/12/16 01:10:25;;;;;;;20.13;15.18;;;2.30;95.20;;;;;;5088944;28;20506;-71
2020/12/16 01:12:54;;;;;;;18.55;14.18;;;2.30;95.20;;;;;;5094088;28;20434;-71
2020/12/16 01:15:27;;;;;;;20.67;15.63;;;2.40;94.90;;;;;;5090554;28;20459;-71
2020/12/16 01:17:53;;;;;;;20.35;15.70;;;2.30;94.60;;;;;;5093982;28;20410;-71
2020/12/16 01:20:22;;;;;;;27.27;18.45;;;2.30;95.00;;;;;;5072460;28;20405;-71
2020/12/16 01:23:01;;;;;;;26.93;19.77;;;2.30;95.20;;;;;;5078178;28;20406;-71
2020/12/16 01:25:27;;;;;;;28.65;20.15;;;2.20;95.10;;;;;;5073064;28;20418;-72
2020/12/16 01:28:00;;;;;;;31.02;21.23;;;2.20;95.20;;;;;;5075551;28;20477;-71
2020/12/16 01:30:27;;;;;;;31.63;21.73;;;2.10;95.20;;;;;;5089521;28;20502;-71
2020/12/16 01:32:55;;;;;;;30.42;21.20;;;2.20;95.30;;;;;;5075496;28;20402;-72
2020/12/16 01:35:28;;;;;;;33.60;21.75;;;2.10;95.30;;;;;;5071488;28;20406;-71
2020/12/16 01:37:55;;;;;;;32.97;22.40;;;2.10;95.30;;;;;;5075842;28;20406;-71
2020/12/16 01:40:22;;;;;;;33.40;22.17;;;2.10;95.40;;;;;;5089783;28;22298;-71
2020/12/16 01:42:48;;;;;;;30.23;21.35;;;2.20;95.40;;;;;;5093141;28;20456;-72
2020/12/16 01:45:20;;;;;;;32.20;22.40;;;2.10;95.30;;;;;;5075499;28;20458;-71
2020/12/16 01:47:48;;;;;;;32.10;21.15;;;2.10;95.40;;;;;;5074448;28;20462;-71
2020/12/16 01:50:14;;;;;;;32.47;21.93;;;2.10;95.30;;;;;;5093051;28;20719;-72
2020/12/16 01:52:44;;;;;;;31.70;21.95;;;2.20;95.30;;;;;;5089913;28;20471;-71
2020/12/16 01:55:12;;;;;;;32.57;22.27;;;2.10;95.30;;;;;;5093088;28;20449;-71
2020/12/16 01:57:45;;;;;;;32.90;22.58;;;2.10;95.40;;;;;;5071813;28;20426;-72
2020/12/16 02:00:13;;;;;;;30.70;21.30;;;2.10;95.50;;;;;;5074967;28;20723;-72
2020/12/16 02:02:49;;;;;;;31.75;22.20;;;2.10;95.50;;;;;;5089444;28;20398;-71
2020/12/16 02:05:18;;;;;;;29.02;20.42;;;2.10;95.50;;;;;;5093049;28;20402;-72
2020/12/16 02:07:45;;;;;;;30.85;21.35;;;2.10;95.50;;;;;;5071539;28;20484;-72
2020/12/16 02:10:13;;;;;;;30.42;21.13;;;2.10;95.40;;;;;;5092532;28;20402;-71
2020/12/16 02:12:40;;;;;;;29.07;21.13;;;2.10;95.40;;;;;;5068065;28;20480;-72
2020/12/16 02:15:07;;;;;;;31.10;21.88;;;2.10;95.40;;;;;;5074811;28;20421;-72
2020/12/16 02:17:34;;;;;;;31.00;21.75;;;2.10;95.40;;;;;;5071385;28;20432;-71
2020/12/16 02:20:09;;;;;;;33.88;22.00;;;2.10;95.50;;;;;;5092581;28;20397;-72
2020/12/16 02:22:36;;;;;;;31.08;21.48;;;2.10;95.50;;;;;;5070985;28;20848;-71
2020/12/16 02:25:08;;;;;;;28.48;20.45;;;2.10;95.50;;;;;;5075091;28;20444;-71
2020/12/16 02:27:40;;;;;;;28.83;20.53;;;2.00;95.40;;;;;;5074399;28;20429;-72
2020/12/16 02:30:11;;;;;;;29.92;21.33;;;2.00;95.30;;;;;;5089797;28;20455;-71
2020/12/16 02:32:42;;;;;;;30.95;21.30;;;2.10;95.40;;;;;;5074517;28;20458;-72
2020/12/16 02:35:09;;;;;;;29.35;20.27;;;2.10;95.40;;;;;;5071530;28;20407;-71
2020/12/16 02:37:35;;;;;;;29.20;19.52;;;2.00;95.70;;;;;;5069669;28;20457;-72
2020/12/16 02:40:05;;;;;;;26.70;18.67;;;2.00;95.40;;;;;;5070942;28;20409;-72
2020/12/16 02:42:33;;;;;;;24.48;17.73;;;2.10;95.50;;;;;;5092108;28;20455;-71
2020/12/16 02:45:01;;;;;;;25.83;18.60;;;2.00;95.40;;;;;;5070912;28;20480;-71
2020/12/16 02:47:28;;;;;;;25.73;18.58;;;2.00;95.40;;;;;;5073384;28;20486;-72
2020/12/16 02:49:55;;;;;;;25.70;18.73;;;2.00;95.40;;;;;;5071534;28;20487;-71
2020/12/16 02:52:24;;;;;;;24.92;17.30;;;2.00;95.30;;;;;;5091753;28;21065;-72
2020/12/16 02:54:55;;;;;;;22.88;17.02;;;2.00;95.40;;;;;;5071120;28;21082;-72
2020/12/16 02:57:22;;;;;;;19.58;15.38;;;2.00;95.40;;;;;;5074162;28;20452;-71
2020/12/16 03:00:02;;;;;;;21.27;15.82;;;2.10;95.30;;;;;;5062605;28;20410;-71
2020/12/16 03:02:28;;;;;;;19.00;14.98;;;2.00;95.20;;;;;;5074192;28;20406;-71
2020/12/16 03:04:54;;;;;;;19.85;14.55;;;2.00;95.50;;;;;;5070722;28;20406;-72
2020/12/16 03:07:21;;;;;;;19.80;15.10;;;2.00;95.20;;;;;;5091700;28;20426;-72
2020/12/16 03:09:50;;;;;;;18.75;14.90;;;2.00;95.20;;;;;;5073742;28;20418;-71
2020/12/16 03:12:17;;;;;;;19.25;14.43;;;2.00;95.30;;;;;;5070289;28;20887;-71
2020/12/16 03:14:45;;;;;;;19.50;14.40;;;2.10;95.30;;;;;;5074047;28;20402;-72
2020/12/16 03:17:12;;;;;;;18.95;13.88;;;2.10;94.90;;;;;;5088266;28;20607;-71
2020/12/16 03:19:38;;;;;;;19.90;15.07;;;2.30;94.20;;;;;;5091617;28;20405;-72
2020/12/16 03:22:07;;;;;;;19.90;15.35;;;2.10;94.50;;;;;;5070363;28;20421;-71
2020/12/16 03:24:33;;;;;;;21.85;16.25;;;2.00;95.00;;;;;;5091659;28;20422;-72
2020/12/16 03:27:02;;;;;;;20.10;15.40;;;2.00;95.20;;;;;;5088014;28;20491;-72
2020/12/16 03:29:29;;;;;;;22.20;16.30;;;2.00;95.30;;;;;;5091178;28;20458;-72
2020/12/16 03:31:55;;;;;;;21.98;16.48;;;1.90;95.40;;;;;;5087782;28;20471;-71
2020/12/16 03:34:24;;;;;;;22.33;16.70;;;1.90;95.80;;;;;;5073255;28;20471;-71
2020/12/16 03:36:50;;;;;;;22.75;16.23;;;2.00;95.70;;;;;;5068750;28;20418;-71
2020/12/16 03:39:19;;;;;;;22.10;16.37;;;1.90;95.50;;;;;;5070747;28;20419;-72
2020/12/16 03:41:45;;;;;;;20.55;15.45;;;2.00;95.80;;;;;;5053166;28;20824;-71
2020/12/16 03:44:14;;;;;;;19.73;15.17;;;2.00;95.60;;;;;;5068861;28;20463;-72
2020/12/16 03:46:40;;;;;;;20.33;14.82;;;2.00;95.50;;;;;;5091087;28;20461;-71
2020/12/16 03:49:06;;;;;;;19.83;14.73;;;2.00;95.50;;;;;;5087512;28;20414;-72
2020/12/16 03:51:35;;;;;;;19.40;14.73;;;2.00;95.00;;;;;;5073368;28;20402;-71
2020/12/16 03:54:04;;;;;;;21.42;15.70;;;1.90;95.30;;;;;;5069729;28;20430;-71
2020/12/16 03:56:34;;;;;;;20.50;15.27;;;1.90;95.60;;;;;;5073567;28;20412;-71
2020/12/16 03:59:02;;;;;;;19.75;14.73;;;1.90;95.60;;;;;;5065444;28;20818;-72
2020/12/16 04:01:29;;;;;;;22.05;14.52;;;1.90;95.60;;;;;;5053011;28;20805;-72
2020/12/16 04:03:56;;;;;;;17.00;13.82;;;1.90;95.70;;;;;;5057721;28;20406;-72
2020/12/16 04:06:22;;;;;;;18.77;14.70;;;1.90;95.40;;;;;;5072967;28;20521;-71
2020/12/16 04:08:49;;;;;;;18.42;13.98;;;1.90;95.50;;;;;;5070152;28;20467;-71
2020/12/16 04:11:18;;;;;;;18.42;13.68;;;1.90;95.50;;;;;;5073491;28;20433;-71
2020/12/16 04:13:45;;;;;;;18.10;13.85;;;1.90;95.60;;;;;;5070486;28;20406;-72
2020/12/16 04:16:20;;;;;;;19.15;13.82;;;1.80;95.60;;;;;;5070371;28;20872;-72
2020/12/16 04:18:47;;;;;;;20.33;14.67;;;1.90;95.40;;;;;;5070471;28;20451;-71
2020/12/16 04:21:17;;;;;;;18.77;14.13;;;1.80;95.40;;;;;;5068086;28;20468;-71
2020/12/16 04:23:43;;;;;;;18.45;14.55;;;1.80;95.50;;;;;;5090636;28;20503;-72
2020/12/16 04:26:10;;;;;;;18.27;14.38;;;1.80;95.60;;;;;;5054746;28;20484;-71
2020/12/16 04:28:36;;;;;;;19.88;13.95;;;1.80;95.50;;;;;;5052764;28;20846;-72
2020/12/16 04:31:09;;;;;;;18.85;14.63;;;1.90;95.60;;;;;;5061495;28;20487;-71
2020/12/16 04:33:39;;;;;;;16.63;13.23;;;1.90;95.30;;;;;;5072662;28;20889;-71
2020/12/16 04:36:09;;;;;;;16.15;12.75;;;1.90;95.20;;;;;;5065909;28;20403;-72
2020/12/16 04:38:35;;;;;;;16.67;13.13;;;1.90;95.30;;;;;;5069220;28;20858;-71
2020/12/16 04:41:06;;;;;;;15.52;12.15;;;1.80;95.40;;;;;;5069578;28;20406;-72
2020/12/16 04:43:40;;;;;;;14.90;12.18;;;2.00;95.00;;;;;;5077519;28;20495;-71
2020/12/16 04:46:09;;;;;;;16.75;12.45;;;2.10;94.70;;;;;;5084375;28;20479;-71
2020/12/16 04:48:40;;;;;;;16.30;13.75;;;2.00;94.70;;;;;;5090350;28;20440;-72
2020/12/16 04:51:07;;;;;;;18.42;14.10;;;1.90;95.20;;;;;;5086823;28;20735;-71
2020/12/16 04:53:38;;;;;;;17.38;13.82;;;1.90;95.30;;;;;;5072632;28;20448;-71
2020/12/16 04:56:05;;;;;;;17.08;13.40;;;1.80;95.30;;;;;;5072865;28;20420;-71
2020/12/16 04:58:35;;;;;;;16.55;13.35;;;1.80;95.60;;;;;;5067272;28;20863;-72
2020/12/16 05:01:03;;;;;;;18.20;13.90;;;1.70;95.70;;;;;;5090602;28;20489;-72
2020/12/16 05:03:32;;;;;;;17.50;13.52;;;1.70;95.80;;;;;;5086828;28;20487;-72
2020/12/16 05:06:01;;;;;;;17.27;12.90;;;1.70;95.80;;;;;;5072377;28;20527;-71
2020/12/16 05:08:28;;;;;;;17.25;12.85;;;1.80;96.30;;;;;;5086501;28;20418;-71
2020/12/16 05:10:57;;;;;;;16.70;13.00;;;1.70;95.60;;;;;;5092273;28;20430;-71
2020/12/16 05:13:26;;;;;;;18.13;13.75;;;1.70;95.80;;;;;;5091013;28;20895;-72
2020/12/16 05:15:54;;;;;;;18.65;14.13;;;1.60;96.00;;;;;;5076169;28;20465;-71
2020/12/16 05:18:27;;;;;;;18.25;13.40;;;1.60;95.90;;;;;;5072858;28;20453;-71
2020/12/16 05:20:56;;;;;;;22.23;15.13;;;1.60;96.00;;;;;;5076210;28;20402;-72
2020/12/16 05:23:28;;;;;;;22.95;15.80;;;1.60;96.10;;;;;;5072031;28;20438;-72
2020/12/16 05:26:00;;;;;;;35.70;21.70;;;1.60;96.20;;;;;;5076179;28;20511;-71
2020/12/16 05:28:29;;;;;;;27.63;18.42;;;1.70;96.20;;;;;;5072290;28;20422;-71
2020/12/16 05:30:57;;;;;;;25.33;17.35;;;1.70;96.00;;;;;;5076131;28;20712;-71
2020/12/16 05:33:28;;;;;;;23.92;16.05;;;1.80;96.10;;;;;;5071579;28;20850;-72
2020/12/16 05:35:55;;;;;;;20.27;14.63;;;1.80;96.00;;;;;;5093529;28;20438;-72
2020/12/16 05:38:22;;;;;;;19.92;14.45;;;1.80;95.80;;;;;;5075139;28;20417;-72
2020/12/16 05:40:50;;;;;;;22.05;15.13;;;1.80;95.70;;;;;;5071975;28;20406;-71
2020/12/16 05:43:34;;;;;;;25.60;16.95;;;1.80;95.90;;;;;;5093178;28;20406;-71
2020/12/16 05:46:03;;;;;;;27.05;17.85;;;1.80;95.90;;;;;;5072418;28;20917;-72
2020/12/16 05:48:32;;;;;;;29.45;19.23;;;1.90;96.10;;;;;;5075721;28;20464;-72
2020/12/16 05:51:01;;;;;;;30.23;19.10;;;1.90;95.70;;;;;;5072114;28;20410;-71
2020/12/16 05:53:29;;;;;;;30.08;19.52;;;1.90;95.50;;;;;;5075735;28;20406;-71
2020/12/16 05:56:01;;;;;;;31.67;19.52;;;1.80;95.60;;;;;;5072269;28;20500;-72
2020/12/16 05:58:35;;;;;;;31.92;20.50;;;1.80;95.80;;;;;;5075518;28;20479;-71
2020/12/16 06:01:06;;;;;;;30.98;20.10;;;1.80;95.80;;;;;;5089444;28;20414;-71
2020/12/16 06:03:35;;;;;;;27.63;18.75;;;1.80;95.90;;;;;;5075389;28;20417;-72
2020/12/16 06:06:06;;;;;;;27.70;18.45;;;1.80;95.80;;;;;;5089622;28;20895;-72
2020/12/16 06:08:40;;;;;;;29.92;19.10;;;1.80;95.70;;;;;;5074914;28;20437;-71
2020/12/16 06:11:10;;;;;;;29.07;18.93;;;1.80;95.60;;;;;;5088763;28;20398;-72
2020/12/16 06:13:36;;;;;;;27.23;18.57;;;1.80;95.70;;;;;;5074799;28;20402;-71
2020/12/16 06:16:10;;;;;;;24.05;15.70;;;1.80;95.80;;;;;;5071233;28;20410;-71
2020/12/16 06:18:43;;;;;;;22.85;15.13;;;1.80;95.70;;;;;;5074487;28;20478;-71
2020/12/16 06:21:11;;;;;;;21.13;15.02;;;1.80;95.90;;;;;;5071399;28;20429;-72
2020/12/16 06:23:42;;;;;;;20.90;14.93;;;1.80;95.50;;;;;;5074691;28;20895;-72
2020/12/16 06:26:16;;;;;;;20.73;14.25;;;1.70;95.70;;;;;;5074433;28;20402;-72
2020/12/16 06:28:46;;;;;;;20.25;14.23;;;1.70;95.80;;;;;;5070838;28;20424;-71
2020/12/16 06:31:31;;;;;;;24.42;14.13;;;1.70;95.80;;;;;;5113046;28;20411;-72
2020/12/16 06:33:58;;;;;;;42.17;15.20;;;1.70;95.80;;;;;;5090687;28;20426;-72
2020/12/16 06:36:37;;;;;;;41.22;16.23;;;1.60;95.80;;;;;;5092363;28;20750;-71
2020/12/16 06:39:19;;;;;;;33.80;15.45;;;1.60;95.90;;;;;;5070805;28;20406;-71
2020/12/16 06:41:59;;;;;;;33.75;15.18;;;1.60;95.90;;;;;;5092139;28;20445;-71
2020/12/16 06:44:27;;;;;;;24.65;14.82;;;1.60;95.90;;;;;;5071895;28;20688;-72
2020/12/16 06:46:55;;;;;;;23.65;14.90;;;1.60;95.90;;;;;;5074287;28;20480;-72
2020/12/16 06:49:30;;;;;;;23.92;15.73;;;1.50;95.90;;;;;;5067550;28;20524;-71
2020/12/16 06:51:57;;;;;;;22.23;15.55;;;1.50;96.00;;;;;;5070827;28;20447;-72
2020/12/16 06:54:26;;;;;;;20.63;15.13;;;1.60;95.90;;;;;;5082894;28;20595;-71
2020/12/16 06:57:19;;;;;;;24.13;15.90;;;1.80;95.50;;;;;;5074162;28;20413;-72
2020/12/16 07:00:00;;;;;;;24.40;16.25;;;1.60;95.70;;;;;;5087973;28;20401;-72
2020/12/16 07:02:31;;;;;;;21.75;15.43;;;1.50;96.20;;;;;;5074186;28;20418;-72
2020/12/16 07:04:59;;;;;;;20.42;14.48;;;1.50;96.10;;;;;;5070385;28;20416;-71
2020/12/16 07:07:46;;;;;;;21.33;14.83;;;1.50;96.00;;;;;;5073331;28;20892;-71
2020/12/16 07:10:34;;;;;;;20.10;14.82;;;1.40;96.20;;;;;;5066736;28;20795;-71
2020/12/16 07:13:17;;;;;;;20.65;15.02;;;1.50;96.30;;;;;;5076263;28;20461;-72
2020/12/16 07:15:54;;;;;;;21.63;15.38;;;1.50;96.30;;;;;;5069087;28;20449;-72
2020/12/16 07:18:40;;;;;;;21.60;14.93;;;1.40;96.30;;;;;;5075402;28;20417;-72
2020/12/16 07:21:07;;;;;;;22.63;15.48;;;1.50;96.30;;;;;;5073750;28;20430;-71
2020/12/16 07:23:44;;;;;;;22.23;15.75;;;1.40;96.30;;;;;;5065600;28;20428;-72
2020/12/16 07:26:18;;;;;;;21.80;15.45;;;1.40;96.30;;;;;;5081744;28;20413;-71
2020/12/16 07:28:48;;;;;;;20.65;15.15;;;1.40;96.50;;;;;;5072739;28;20449;-72
2020/12/16 07:31:15;;;;;;;22.92;15.15;;;1.40;96.40;;;;;;5069314;28;20433;-71
2020/12/16 07:33:42;;;;;;;22.48;15.40;;;1.40;96.70;;;;;;5090502;28;20862;-71
2020/12/16 07:36:09;;;;;;;24.55;16.52;;;1.50;96.40;;;;;;5069987;28;20410;-72
2020/12/16 07:38:37;;;;;;;26.07;16.80;;;1.60;95.90;;;;;;5072774;28;20421;-71
2020/12/16 07:41:06;;;;;;;24.10;16.92;;;1.50;96.00;;;;;;5082759;28;20439;-71
2020/12/16 07:43:35;;;;;;;25.48;15.95;;;1.50;96.30;;;;;;5069248;28;20806;-72
2020/12/16 07:46:07;;;;;;;24.85;16.08;;;1.60;96.00;;;;;;5067403;28;23831;-71
2020/12/16 07:48:35;;;;;;;22.52;15.15;;;1.50;96.10;;;;;;5088974;28;20466;-72
2020/12/16 07:51:06;;;;;;;22.15;14.57;;;1.60;96.30;;;;;;5070218;28;20446;-72
2020/12/16 07:53:34;;;;;;;20.67;14.13;;;1.60;96.30;;;;;;5069362;28;20415;-72
2020/12/16 07:56:03;;;;;;;21.33;14.18;;;1.60;96.30;;;;;;5068272;28;20469;-74
2020/12/16 07:58:42;;;;;;;25.85;14.70;;;1.60;96.30;;;;;;5084646;28;20426;-73
2020/12/16 08:01:20;;;;;;;20.85;13.30;;;1.60;96.30;;;;;;5070643;28;21134;-74
2020/12/16 08:03:58;;;;;;;21.70;14.05;;;2.00;95.80;;;;;;5068471;28;20437;-74
2020/12/16 08:06:31;;;;;;;18.15;13.20;;;2.10;95.20;;;;;;5073491;28;20410;-74
2020/12/16 08:09:28;;;;;;;20.95;13.23;;;2.20;95.40;;;;;;5049973;28;20424;-74
2020/12/16 08:12:14;;;;;;;17.77;12.80;;;2.20;95.00;;;;;;5070584;28;20420;-74
2020/12/16 08:14:45;;;;;;;18.73;13.13;;;2.40;94.50;;;;;;5089298;28;20416;-74
2020/12/16 08:17:36;;;;;;;16.30;12.10;;;2.30;94.90;;;;;;5074191;28;20425;-74
2020/12/16 08:20:35;;;;;;;13.02;9.85;;;2.30;95.00;;;;;;5053403;28;21071;-74
2020/12/16 08:23:16;;;;;;;13.65;10.00;;;2.60;94.20;;;;;;5064882;28;20413;-74
2020/12/16 08:25:54;;;;;;;13.77;10.02;;;2.60;94.00;;;;;;5073268;28;20487;-74
2020/12/16 08:28:30;;;;;;;15.38;9.75;;;2.60;93.90;;;;;;5070913;28;20422;-74
2020/12/16 08:31:09;;;;;;;13.90;9.83;;;2.50;94.10;;;;;;5073655;28;20408;-74
2020/12/16 08:33:43;;;;;;;14.00;9.85;;;2.80;93.70;;;;;;5086996;28;20410;-74
2020/12/16 08:36:15;;;;;;;10.97;8.87;;;2.90;93.50;;;;;;5090247;28;20400;-74
2020/12/16 08:38:49;;;;;;;12.60;9.57;;;2.90;93.40;;;;;;5087508;28;20418;-74
2020/12/16 08:41:31;;;;;;;14.30;9.60;;;2.80;93.40;;;;;;5052646;28;20480;-74
2020/12/16 08:44:01;;;;;;;21.83;14.38;;;2.80;93.80;;;;;;5069937;28;20856;-74
2020/12/16 08:46:38;;;;;;;27.27;17.38;;;2.80;93.90;;;;;;5077053;28;20406;-74
2020/12/16 08:49:10;;;;;;;30.70;19.13;;;2.90;94.00;;;;;;5077022;28;20425;-74
2020/12/16 08:51:47;;;;;;;31.15;19.35;;;3.10;93.60;;;;;;5073047;28;20429;-74
2020/12/16 08:54:24;;;;;;;36.47;22.38;;;3.20;93.20;;;;;;5076960;28;20485;-74
2020/12/16 08:56:58;;;;;;;37.70;23.15;;;3.20;93.30;;;;;;5073067;28;20426;-74
2020/12/16 08:59:31;;;;;;;39.22;24.60;;;3.30;93.10;;;;;;5069105;28;20420;-74
2020/12/16 09:02:13;;;;;;;39.97;26.02;;;3.30;93.30;;;;;;5070064;28;20414;-74
2020/12/16 09:04:56;;;;;;;42.72;25.83;;;3.30;93.30;;;;;;5076786;28;20903;-74
2020/12/16 09:07:26;;;;;;;43.83;26.65;;;3.20;93.30;;;;;;5072125;28;20495;-74
2020/12/16 09:09:55;;;;;;;44.47;26.85;;;3.20;93.20;;;;;;5076033;28;20470;-74
2020/12/16 09:12:23;;;;;;;46.53;27.63;;;3.20;93.30;;;;;;5090489;28;20483;-74
2020/12/16 09:14:59;;;;;;;49.35;29.50;;;3.20;93.40;;;;;;5075962;28;20480;-74
2020/12/16 09:17:33;;;;;;;45.42;27.55;;;3.10;93.60;;;;;;5059953;28;20419;-74
2020/12/16 09:20:15;;;;;;;40.85;25.05;;;3.10;93.50;;;;;;5056562;28;20411;-74
2020/12/16 09:22:45;;;;;;;42.70;25.93;;;3.20;93.10;;;;;;5083917;28;20923;-74
2020/12/16 09:25:20;;;;;;;40.60;25.85;;;3.30;93.10;;;;;;5075888;28;20420;-74
2020/12/16 09:28:00;;;;;;;43.60;26.33;;;3.30;93.40;;;;;;5068536;28;20432;-74
2020/12/16 09:30:33;;;;;;;42.67;26.90;;;3.30;93.20;;;;;;5072302;28;20395;-74
2020/12/16 09:33:14;;;;;;;45.92;27.88;;;3.30;93.30;;;;;;5068562;28;20422;-74
2020/12/16 09:35:52;;;;;;;46.47;27.73;;;3.40;93.20;;;;;;5071934;28;20468;-74
2020/12/16 09:38:22;;;;;;;47.90;29.08;;;3.40;93.20;;;;;;5069258;28;20408;-74
2020/12/16 09:41:04;;;;;;;49.47;29.33;;;3.40;93.10;;;;;;5072800;28;20419;-74
2020/12/16 09:43:44;;;;;;;48.67;28.95;;;3.40;93.10;;;;;;5089602;28;20406;-74
2020/12/16 09:46:26;;;;;;;47.63;28.30;;;3.50;93.00;;;;;;5097549;28;20428;-74
2020/12/16 09:49:00;;;;;;;49.30;29.52;;;3.50;93.10;;;;;;5077504;28;20428;-74
2020/12/16 09:51:35;;;;;;;49.70;30.17;;;3.50;93.10;;;;;;5071990;28;20507;-74
2020/12/16 09:54:01;;;;;;;52.43;30.80;;;3.60;92.80;;;;;;5071729;28;20409;-74
2020/12/16 09:56:39;;;;;;;56.60;31.48;;;3.60;93.00;;;;;;5075839;28;20418;-74
2020/12/16 09:59:18;;;;;;;54.05;31.95;;;3.70;92.70;;;;;;5067569;28;20427;-74
2020/12/16 10:01:51;;;;;;;54.10;33.13;;;3.70;92.70;;;;;;5055223;28;20645;-74
2020/12/16 10:04:18;;;;;;;54.08;33.03;;;3.70;93.00;;;;;;5058813;28;20445;-74
2020/12/16 10:06:53;;;;;;;60.67;33.72;;;3.70;92.90;;;;;;5092674;28;20428;-74
2020/12/16 10:09:25;;;;;;;59.25;36.08;;;3.70;93.00;;;;;;5068220;28;20482;-75
2020/12/16 10:12:02;;;;;;;58.53;34.75;;;3.80;92.60;;;;;;5054931;28;20713;-74
2020/12/16 10:14:34;;;;;;;58.22;34.60;;;3.80;92.50;;;;;;5056263;28;20488;-74
2020/12/16 10:17:13;;;;;;;88.40;45.15;;;3.80;92.30;;;;;;5092425;28;20805;-74
2020/12/16 10:19:42;;;;;;;59.45;36.53;;;3.80;92.60;;;;;;5071823;28;20436;-74
2020/12/16 10:22:21;;;;;;;63.50;36.30;;;3.80;92.70;;;;;;5075018;28;20418;-74
2020/12/16 10:24:53;;;;;;;59.47;35.70;;;3.70;92.50;;;;;;5071395;28;20405;-74
2020/12/16 10:27:28;;;;;;;59.67;36.35;;;3.80;92.30;;;;;;5075200;28;20449;-74
2020/12/16 10:29:56;;;;;;;55.70;34.80;;;3.80;92.60;;;;;;5074263;28;20830;-74
2020/12/16 10:32:23;;;;;;;61.47;34.92;;;3.70;92.40;;;;;;5052248;28;20903;-74
2020/12/16 10:34:54;;;;;;;55.42;33.67;;;3.70;92.70;;;;;;5054450;28;20464;-74
2020/12/16 10:37:24;;;;;;;53.30;33.20;;;3.70;92.70;;;;;;5069197;28;20426;-74
2020/12/16 10:39:59;;;;;;;55.58;33.70;;;3.70;92.30;;;;;;5092126;28;20410;-74
2020/12/16 10:42:29;;;;;;;52.85;33.40;;;3.70;92.50;;;;;;5069295;28;20508;-75
2020/12/16 10:45:00;;;;;;;55.08;33.83;;;3.70;92.50;;;;;;5074890;28;20456;-74
2020/12/16 10:47:32;;;;;;;56.47;33.85;;;3.70;92.70;;;;;;5067126;28;20523;-74
2020/12/16 10:50:03;;;;;;;53.77;33.53;;;3.70;92.50;;;;;;5072404;28;20404;-74
2020/12/16 10:52:38;;;;;;;55.08;33.38;;;3.60;92.70;;;;;;5071710;28;20406;-73
2020/12/16 10:55:06;;;;;;;54.85;32.72;;;3.70;92.50;;;;;;5091970;28;20417;-74
2020/12/16 10:57:48;;;;;;;56.53;33.90;;;3.80;92.20;;;;;;5071906;28;20402;-74
2020/12/16 11:00:14;;;;;;;58.23;34.93;;;3.60;92.40;;;;;;5074037;28;20412;-74
2020/12/16 11:02:44;;;;;;;55.97;33.72;;;3.70;92.70;;;;;;5070958;28;20514;-74
2020/12/16 11:05:14;;;;;;;58.30;35.33;;;3.60;92.50;;;;;;5073665;28;20819;-74
2020/12/16 11:07:54;;;;;;;59.80;35.60;;;3.60;92.80;;;;;;5071199;28;20877;-74
2020/12/16 11:10:29;;;;;;;55.95;34.20;;;3.60;93.00;;;;;;5091209;28;20878;-74
2020/12/16 11:12:56;;;;;;;60.20;34.97;;;3.60;93.00;;;;;;5069891;28;20897;-74
2020/12/16 11:15:26;;;;;;;59.95;35.33;;;3.60;92.80;;;;;;5091729;28;20475;-74
2020/12/16 11:17:57;;;;;;;55.53;33.80;;;3.60;92.90;;;;;;5070327;28;20529;-74
2020/12/16 11:20:27;;;;;;;59.58;33.83;;;3.60;92.80;;;;;;5074086;28;20414;-74
2020/12/16 11:23:00;;;;;;;60.67;35.53;;;3.60;92.80;;;;;;5072571;28;20424;-74
2020/12/16 11:25:34;;;;;;;61.13;34.28;;;3.60;92.80;;;;;;5071065;28;20498;-74
2020/12/16 11:28:06;;;;;;;60.60;35.00;;;3.60;92.80;;;;;;5053694;28;20738;-74
2020/12/16 11:30:36;;;;;;;60.23;35.33;;;3.60;92.80;;;;;;5069744;28;20438;-74
2020/12/16 11:33:05;;;;;;;59.97;34.67;;;3.70;92.50;;;;;;5073198;28;20475;-73
2020/12/16 11:35:34;;;;;;;58.00;32.17;;;3.80;92.20;;;;;;5054627;28;20416;-74
2020/12/16 11:38:04;;;;;;;59.00;34.10;;;3.90;91.70;;;;;;5070593;28;20557;-74
2020/12/16 11:40:37;;;;;;;60.03;34.70;;;3.80;91.90;;;;;;5062084;28;20898;-74
2020/12/16 11:43:15;;;;;;;58.35;34.17;;;3.70;92.30;;;;;;5074054;28;20445;-74
2020/12/16 11:46:02;;;;;;;60.55;34.00;;;3.70;92.50;;;;;;5045013;28;20421;-76
2020/12/16 11:48:36;;;;;;;59.05;34.13;;;3.70;92.50;;;;;;5033678;28;20429;-75
2020/12/16 11:51:11;;;;;;;62.17;35.15;;;3.70;92.40;;;;;;5042715;28;20887;-73
2020/12/16 11:53:45;;;;;;;66.90;35.90;;;3.70;92.50;;;;;;5053511;28;20415;-74
2020/12/16 11:56:18;;;;;;;64.70;36.08;;;3.70;92.70;;;;;;5061778;28;20414;-74
2020/12/16 11:58:58;;;;;;;62.83;34.97;;;3.70;92.60;;;;;;5070569;28;20443;-73
2020/12/16 12:01:31;;;;;;;64.07;33.25;;;3.70;92.50;;;;;;5049856;28;21005;-74
2020/12/16 12:04:04;;;;;;;61.72;34.97;;;3.80;92.20;;;;;;5070491;28;20477;-74
2020/12/16 12:06:38;;;;;;;63.05;33.90;;;3.80;92.30;;;;;;5049612;28;20458;-73
2020/12/16 12:09:10;;;;;;;62.45;34.83;;;3.80;92.00;;;;;;5052761;28;20435;-74
2020/12/16 12:11:40;;;;;;;63.50;33.75;;;3.70;92.30;;;;;;5067407;28;20424;-74
2020/12/16 12:14:18;;;;;;;64.65;33.63;;;3.70;92.30;;;;;;5053461;28;20525;-73
2020/12/16 12:16:54;;;;;;;65.10;33.17;;;3.70;92.30;;;;;;5049843;28;20418;-74
2020/12/16 12:19:33;;;;;;;60.65;32.75;;;3.60;92.30;;;;;;5052679;28;20416;-74
2020/12/16 12:22:00;;;;;;;61.13;33.00;;;3.70;92.50;;;;;;5054837;28;20422;-74
2020/12/16 12:24:29;;;;;;;61.30;32.33;;;3.70;92.30;;;;;;5073525;28;20471;-74
2020/12/16 12:26:57;;;;;;;60.40;32.93;;;3.70;92.30;;;;;;5067140;28;20428;-74
2020/12/16 12:29:40;;;;;;;63.55;32.95;;;3.80;92.00;;;;;;5055146;28;20418;-74
2020/12/16 12:32:21;;;;;;;61.85;32.80;;;3.70;92.20;;;;;;5067191;28;20418;-74
2020/12/16 12:34:51;;;;;;;61.35;33.03;;;3.60;92.30;;;;;;5079771;28;20425;-74
2020/12/16 12:37:30;;;;;;;60.83;32.85;;;3.60;92.30;;;;;;5069675;28;20433;-74
2020/12/16 12:40:02;;;;;;;64.97;33.40;;;3.60;92.30;;;;;;5072144;28;20402;-73
2020/12/16 12:42:31;;;;;;;60.92;32.30;;;3.60;92.60;;;;;;5072661;28;20418;-73
2020/12/16 12:45:00;;;;;;;60.67;32.30;;;3.60;92.50;;;;;;5071005;28;20444;-76
2020/12/16 12:47:27;;;;;;;57.35;31.33;;;3.70;92.60;;;;;;5090279;28;20429;-76
2020/12/16 12:50:05;;;;;;;62.70;32.38;;;3.70;92.30;;;;;;5069273;28;20496;-76
2020/12/16 12:52:34;;;;;;;60.30;32.13;;;3.70;92.30;;;;;;5073028;28;20413;-76
2020/12/16 12:55:04;;;;;;;59.72;32.00;;;3.80;92.30;;;;;;5069696;28;20409;-76
2020/12/16 12:57:49;;;;;;;69.88;36.90;;;3.90;92.00;;;;;;5072757;28;20459;-75
2020/12/16 13:00:18;;;;;;;61.67;32.40;;;3.90;92.20;;;;;;5054689;28;20415;-76